Latest Coastal Weather Observations for Cape Nelson

IDV60701

Issued at 2:21 am EST Friday 29 May 2015 (issued every 10 minutes, with the page automatically refreshed every 10 minutes)

About coastal observations | Map of coastal stations | Coastal observations for VIC | Marine services | Other Formats
Station Details ID: 090184 Name: CAPE NELSON LIGHTHOUSE Lat: -38.43 Lon: 141.54 Height: 45.4 m
Data from the previous 72 hours. | See also: Recent months at Cape Nelson
Date/Time
EST
Temp

°C
Wind Pressure Rain
since 9am
mm
Weather Cloud Vis
km
Sea
Height
m
Swell
Dir
 
Speed
knots
Gust
knots
hPa Trend Height
m
Period
s
Dir
29/02:00am 12.6 W 18 29 1017.1 - 3.8 - - - - - - -
29/01:30am 12.6 W 19 32 1016.9 - 3.8 - - - - - - -
29/01:10am 12.7 W 19 29 1017.0 - 3.8 - - - - - - -
29/01:00am 12.2 WNW 19 27 1017.0 - 3.8 - - - - - - -
29/12:30am 12.3 W 18 29 1017.0 - 3.8 - - - - - - -
29/12:03am 12.2 W 24 34 1017.0 - 3.8 - - - - - - -
29/12:00am 12.3 W 26 34 1016.9 - 3.8 - - - - - - -
 
Date/Time
EST
Temp

°C
Wind Pressure Rain
since 9am
mm
Weather Cloud Vis
km
Sea
Height
m
Swell
Dir
 
Speed
knots
Gust
knots
hPa Trend Height
m
Period
s
Dir
28/11:30pm 12.7 W 16 28 1016.6 - 3.8 - - - - - - -
28/11:00pm 12.6 W 19 29 1016.4 - 3.8 - - - - - - -
28/10:30pm 12.1 WNW 18 30 1016.3 - 3.6 - - - - - - -
28/10:07pm 12.8 W 18 28 1016.2 - 3.6 - - - - - - -
28/10:00pm 12.6 W 21 28 1016.2 - 3.6 - - - - - - -
28/09:31pm 12.2 WNW 16 26 1016.1 - 3.6 - - - - - - -
28/09:30pm 12.5 WNW 17 26 1016.1 - 3.6 - - - - - - -
28/09:00pm 11.7 W 20 33 1015.9 - 3.6 Rain - - - - - -
28/08:36pm 12.5 W 20 30 1015.5 - 3.4 - - - - - - -
28/08:30pm 12.3 W 23 31 1015.5 - 3.4 - - - - - - -
28/08:00pm 13.0 W 18 31 1015.2 - 3.4 - - - - - - -
28/07:30pm 13.1 W 22 33 1014.7 - 3.4 - - - - - - -
28/07:25pm 13.0 W 20 33 1014.7 - 3.4 - - - - - - -
28/07:00pm 13.1 WNW 20 29 1014.5 - 3.4 - - - - - - -
28/06:30pm 13.2 W 19 30 1014.3 - 3.4 - - - - - - -
28/06:11pm 13.0 W 21 31 1014.0 - 3.4 - - - - - - -
28/06:00pm 12.1 WNW 19 28 1014.0 - 3.4 Recent precip. - - - - - -
28/05:30pm 12.7 WNW 17 27 1013.6 - 3.2 - - - - - - -
28/05:00pm 13.7 WNW 23 34 1013.1 - 3.2 - - - - - - -
28/04:33pm 13.3 WNW 17 27 1013.0 - 3.2 - - - - - - -
28/04:30pm 13.4 WNW 18 27 1013.0 - 3.2 - - - - - - -
28/04:00pm 12.7 W 15 25 1012.8 - 3.2 - - - - - - -
28/03:37pm 13.7 W 15 25 1012.6 - 2.6 - - - - - - -
28/03:30pm 13.3 WNW 18 26 1012.6 - 2.6 - - - - - - -
28/03:03pm 13.2 W 21 31 1012.4 - 2.6 - - - - - - -
28/03:00pm 13.4 W 24 31 1012.4 - 2.6 Recent precip. - - - - - -
28/02:30pm 12.9 W 19 33 1011.9 - 2.6 - - - - - - -
28/02:05pm 13.4 WNW 20 30 1011.8 - 2.2 - - - - - - -
28/02:00pm 14.1 WNW 22 30 1011.8 - 2.0 - - - - - - -
28/01:30pm 15.7 NW 23 33 1011.2 - 0.8 - - - - - - -
28/01:00pm 14.5 NW 23 33 1011.7 - 0.8 - - - - - - -
28/12:30pm 13.8 NW 23 35 1012.1 - 0.2 - - - - - - -
28/12:00pm 16.2 NW 21 31 1011.9 - 0.0 - - - - - - -
28/11:55am 16.1 NW 21 31 1012.0 - 0.0 - - - - - - -
28/11:30am 15.5 NW 21 30 1012.6 - 0.0 - - - - - - -
28/11:23am 15.0 NW 20 30 1012.8 - 0.0 - - - - - - -
28/11:00am 14.5 NW 20 27 1013.0 - 0.0 - - - - - - -
28/10:30am 14.9 NW 21 31 1013.1 - 0.0 - - - - - - -
28/10:05am 14.9 NNW 21 31 1012.9 - 0.0 - - - - - - -
28/10:00am 15.0 NNW 19 28 1013.0 - 0.0 - - - - - - -
28/09:30am 14.4 NNW 16 29 1013.3 - 0.0 - - - - - - -
28/09:18am 13.7 NNW 16 26 1013.3 - 0.0 - - - - - - -
28/09:00am 13.7 NNW 15 24 1013.4 - 4.6 - - - - - - -
28/08:30am 13.1 NNW 12 17 1013.5 - 4.6 - - - - - - -
28/08:00am 12.8 NNW 13 19 1013.4 - 4.6 - - - - - - -
28/07:30am 13.1 NNW 14 19 1013.4 - 4.6 - - - - - - -
28/07:00am 12.9 NW 18 25 1013.5 - 4.6 - - - - - - -
28/06:39am 12.5 NW 17 27 1013.3 - 4.6 - - - - - - -
28/06:30am 12.3 NNW 15 23 1013.4 - 4.6 - - - - - - -
28/06:08am 12.5 NNW 15 25 1013.1 - 4.6 - - - - - - -
28/06:00am 12.6 NNW 15 22 1013.2 - 4.6 - - - - - - -
28/05:30am 13.0 NNW 14 21 1013.4 - 4.6 - - - - - - -
28/05:00am 13.1 NNW 11 18 1013.5 - 4.6 - - - - - - -
28/04:30am 13.1 NW 14 21 1013.6 - 4.6 - - - - - - -
28/04:00am 13.4 NNW 13 20 1013.9 - 4.0 - - - - - - -
28/03:30am 13.2 NNW 13 20 1014.1 - 3.8 - - - - - - -
28/03:00am 12.7 NNW 11 17 1014.1 - 3.8 - - - - - - -
28/02:30am 12.9 NNW 12 17 1014.3 - 3.8 - - - - - - -
28/02:00am 13.2 NNW 13 19 1014.5 - 3.8 - - - - - - -
28/01:30am 13.2 NNW 13 18 1014.5 - 3.8 - - - - - - -
28/01:00am 13.1 NNW 13 19 1014.9 - 3.8 - - - - - - -
28/12:30am 13.4 NW 17 28 1015.2 - 3.8 - - - - - - -
28/12:28am 13.6 NW 16 28 1015.3 - 3.8 - - - - - - -
28/12:00am 14.3 NW 13 20 1015.7 - 3.2 Rain - - - - - -
 
Date/Time
EST
Temp

°C
Wind Pressure Rain
since 9am
mm
Weather Cloud Vis
km
Sea
Height
m
Swell
Dir
 
Speed
knots
Gust
knots
hPa Trend Height
m
Period
s
Dir
27/11:30pm 14.1 NNW 13 19 1015.5 - 2.2 - - - - - - -
27/11:00pm 13.9 NNW 13 18 1015.5 - 2.2 - - - - - - -
27/10:30pm 13.9 NNW 13 20 1015.5 - 2.2 - - - - - - -
27/10:00pm 13.5 NNW 12 17 1015.8 - 2.2 - - - - - - -
27/09:30pm 13.5 NNW 11 16 1015.8 - 2.2 - - - - - - -
27/09:00pm 13.8 NNW 12 17 1015.9 - 2.2 - - - - - - -
27/08:30pm 14.0 NNW 14 21 1015.7 - 2.2 - - - - - - -
27/08:00pm 14.3 NNW 12 18 1015.7 - 2.2 - - - - - - -
27/07:30pm 14.3 NW 15 21 1015.7 - 2.2 - - - - - - -
27/07:13pm 14.1 NW 15 25 1015.7 - 2.2 - - - - - - -
27/07:00pm 14.1 NNW 10 14 1015.6 - 2.2 - - - - - - -
27/06:30pm 14.0 NW 10 15 1015.6 - 2.2 - - - - - - -
27/06:00pm 14.1 NNW 9 12 1015.5 - 2.2 - - - - - - -
27/05:30pm 14.5 NNW 9 13 1015.4 - 2.2 - - - - - - -
27/05:00pm 14.9 NW 12 16 1015.3 - 2.2 - - - - - - -
27/04:30pm 15.2 NW 13 19 1015.1 - 2.2 - - - - - - -
27/04:00pm 15.3 NW 12 17 1015.4 - 2.2 - - - - - - -
27/03:30pm 15.1 NW 13 17 1015.3 - 2.2 - - - - - - -
27/03:00pm 15.5 NW 11 16 1015.3 - 0.8 Rain - - - - - -
27/02:30pm 16.8 NNW 13 20 1014.9 - 0.0 - - - - - - -
27/02:00pm 17.5 NNW 12 17 1015.1 - 0.0 - - - - - - -
27/01:30pm 18.5 NNW 13 18 1015.4 - 0.0 - - - - - - -
27/01:00pm 18.3 NW 13 16 1015.8 - 0.0 - - - - - - -
27/12:30pm 18.2 NW 13 19 1016.2 - 0.0 - - - - - - -
27/12:00pm 17.7 NW 15 19 1016.7 - 0.0 - - - - - - -
27/11:30am 17.2 NW 17 22 1017.1 - 0.0 - - - - - - -
27/11:00am 16.6 NW 16 22 1017.3 - 0.0 - - - - - - -
27/10:30am 16.1 NW 17 23 1017.4 - 0.0 - - - - - - -
27/10:00am 15.7 NW 15 24 1017.4 - 0.0 - - - - - - -
27/09:30am 15.1 NW 16 24 1017.5 - 0.0 - - - - - - -
27/09:00am 13.9 NW 13 20 1017.4 - 0.0 - - - - - - -
27/08:30am 13.0 NNW 13 17 1017.2 - 0.0 - - - - - - -
27/08:00am 12.8 NNW 13 19 1016.8 - 0.0 - - - - - - -
27/07:30am 12.8 NNW 13 20 1016.7 - 0.0 - - - - - - -
27/07:00am 13.0 NNW 13 19 1016.6 - 0.0 - - - - - - -
27/06:30am 13.0 NNW 13 19 1016.4 - 0.0 - - - - - - -
27/06:00am 13.2 NNW 12 23 1016.6 - 0.0 - - - - - - -
27/05:30am 12.3 NNW 12 17 1016.7 - 0.0 - - - - - - -
27/05:00am 12.4 N 12 17 1016.7 - 0.0 - - - - - - -
27/04:30am 12.6 N 12 18 1016.8 - 0.0 - - - - - - -
27/04:00am 13.0 N 12 17 1017.2 - 0.0 - - - - - - -
27/03:30am 13.3 N 13 19 1017.4 - 0.0 - - - - - - -
27/03:00am 13.6 N 12 17 1017.7 - 0.0 - - - - - - -
27/02:30am 13.6 N 13 21 1018.1 - 0.0 - - - - - - -
27/02:00am 13.6 N 14 21 1018.5 - 0.0 - - - - - - -
27/01:30am 13.6 N 11 19 1018.6 - 0.0 - - - - - - -
27/01:00am 13.6 N 13 21 1018.9 - 0.0 - - - - - - -
27/12:30am 13.5 N 14 20 1019.1 - 0.0 - - - - - - -
27/12:00am 13.5 N 14 20 1019.4 - 0.0 - - - - - - -
 
Date/Time
EST
Temp

°C
Wind Pressure Rain
since 9am
mm
Weather Cloud Vis
km
Sea
Height
m
Swell
Dir
 
Speed
knots
Gust
knots
hPa Trend Height
m
Period
s
Dir
26/11:30pm 13.6 N 15 21 1019.7 - 0.0 - - - - - - -
26/11:00pm 13.4 N 13 19 1019.9 - 0.0 - - - - - - -
26/10:30pm 13.1 N 11 15 1020.2 - 0.0 - - - - - - -
26/10:00pm 13.3 N 10 13 1020.5 - 0.0 - - - - - - -
26/09:30pm 13.4 N 9 12 1020.9 - 0.0 - - - - - - -
26/09:00pm 13.4 NNE 8 10 1020.9 - 0.0 - - - - - - -
26/08:30pm 13.2 NNE 9 12 1021.1 - 0.0 - - - - - - -
26/08:00pm 13.2 NNE 10 13 1021.3 - 0.0 - - - - - - -
26/07:30pm 13.1 NE 10 13 1021.7 - 0.0 - - - - - - -
26/07:00pm 13.2 NE 9 11 1021.8 - 0.0 - - - - - - -
26/06:30pm 13.0 NE 7 9 1021.9 - 0.0 - - - - - - -
26/06:00pm 13.2 NE 8 10 1022.1 - 0.0 - - - - - - -
26/05:30pm 13.3 NE 6 8 1022.3 - 0.0 - - - - - - -
26/05:00pm 13.8 NE 9 12 1022.4 - 0.0 - - - - - - -
26/04:30pm 13.8 ENE 8 11 1022.4 - 0.0 - - - - - - -
26/04:00pm 14.2 ENE 8 10 1022.7 - 0.0 - - - - - - -
26/03:30pm 15.0 ENE 7 10 1023.0 - 0.0 - - - - - - -
26/03:00pm 15.1 ENE 8 11 1023.0 - 0.0 - - - - - - -
26/02:30pm 15.3 ENE 9 11 1023.5 - 0.0 - - - - - - -
26/02:00pm 15.2 ENE 9 11 1023.9 - 0.0 - - - - - - -
26/01:30pm 15.4 ENE 9 11 1024.4 - 0.0 - - - - - - -
26/01:00pm 16.1 NE 7 10 1024.9 - 0.0 - - - - - - -
26/12:30pm 17.6 N 5 8 1025.5 - 0.0 - - - - - - -
26/12:00pm 15.5 N 5 7 1026.1 - 0.0 - - - - - - -
26/11:30am 14.7 N 7 10 1026.9 - 0.0 - - - - - - -
26/11:00am 15.4 N 10 14 1027.4 - 0.0 - - - - - - -
26/10:30am 14.2 N 9 16 1027.4 - 0.0 - - - - - - -
26/10:00am 12.7 N 9 13 1027.6 - 0.0 - - - - - - -
26/09:30am 12.1 N 9 12 1027.7 - 0.0 - - - - - - -
26/09:00am 11.3 N 9 13 1027.8 - 0.0 - - - - - - -
26/08:30am 9.8 N 9 12 1027.8 - 0.0 - - - - - - -
26/08:00am 9.7 N 9 12 1027.8 - 0.0 - - - - - - -
26/07:30am 9.5 N 6 9 1027.7 - 0.0 - - - - - - -
26/07:00am 9.9 CALM 0 3 1027.6 - 0.0 - - - - - - -
26/06:30am 9.3 N 7 9 1027.4 - 0.0 - - - - - - -
26/06:00am 8.2 N 6 8 1027.4 - 0.0 - - - - - - -
26/05:30am 8.4 N 6 7 1027.5 - 0.0 - - - - - - -
26/05:00am 8.7 N 8 11 1027.5 - 0.0 - - - - - - -
26/04:30am 6.9 N 4 6 1027.5 - 0.0 - - - - - - -
26/04:00am 8.2 N 5 6 1027.6 - 0.0 - - - - - - -
26/03:30am 9.1 N 7 9 1027.7 - 0.0 - - - - - - -
26/03:00am 9.4 NNW 8 9 1028.0 - 0.0 - - - - - - -
26/02:30am 9.5 NNW 9 12 1028.1 - 0.0 - - - - - - -

Other Formats:

Comma delimited format used in spreadsheet applications
http://www.bom.gov.au/fwo/IDV60701/IDV60701.94826.axf

JavaScript Object Notation format (JSON) in row-major order
http://www.bom.gov.au/fwo/IDV60701/IDV60701.94826.json